createdAt,value
2022-09-24T00:01:32.766Z,10.70
2022-09-24T00:04:05.675Z,10.70
2022-09-24T00:06:40.985Z,10.70
2022-09-24T00:09:08.004Z,10.70
2022-09-24T00:11:35.423Z,10.80
2022-09-24T00:14:02.138Z,10.80
2022-09-24T00:16:31.711Z,10.80
2022-09-24T00:18:59.507Z,10.80
2022-09-24T00:21:29.575Z,10.80
2022-09-24T00:23:59.651Z,10.80
2022-09-24T00:26:45.421Z,10.80
2022-09-24T00:29:14.523Z,10.80
2022-09-24T00:31:41.219Z,10.80
2022-09-24T00:34:08.539Z,10.90
2022-09-24T00:36:35.304Z,10.90
2022-09-24T00:39:01.935Z,11.00
2022-09-24T00:41:32.039Z,11.00
2022-09-24T00:43:59.461Z,11.00
2022-09-24T00:46:48.565Z,11.00
2022-09-24T00:49:18.094Z,10.90
2022-09-24T00:51:48.791Z,10.90
2022-09-24T00:54:23.055Z,10.80
2022-09-24T00:56:51.515Z,10.80
2022-09-24T00:59:23.005Z,10.70
2022-09-24T01:01:51.794Z,10.70
2022-09-24T01:04:22.716Z,10.60
2022-09-24T01:06:50.150Z,10.50
2022-09-24T01:09:18.934Z,10.50
2022-09-24T01:12:10.781Z,10.40
2022-09-24T01:15:10.342Z,10.40
2022-09-24T01:18:06.642Z,10.30
2022-09-24T01:20:52.466Z,10.40
2022-09-24T01:23:48.988Z,10.30
2022-09-24T01:26:22.950Z,10.30
2022-09-24T01:29:00.376Z,10.20
2022-09-24T01:31:41.567Z,10.20
2022-09-24T01:34:12.288Z,10.10
2022-09-24T01:36:41.241Z,10.10
2022-09-24T01:39:08.890Z,10.10
2022-09-24T01:41:38.465Z,10.00
2022-09-24T01:44:07.793Z,9.90
2022-09-24T01:46:38.709Z,9.90
2022-09-24T01:49:07.166Z,9.90
2022-09-24T01:51:52.293Z,9.80
2022-09-24T01:54:28.378Z,9.80
2022-09-24T01:57:09.851Z,9.70
2022-09-24T01:59:41.473Z,9.70
2022-09-24T02:02:19.859Z,9.70
2022-09-24T02:04:53.615Z,9.70
2022-09-24T02:07:29.736Z,9.70
2022-09-24T02:09:56.399Z,9.70
2022-09-24T02:12:37.324Z,9.80
2022-09-24T02:15:14.662Z,9.80
2022-09-24T02:17:45.855Z,9.80
2022-09-24T02:20:16.323Z,9.90
2022-09-24T02:22:44.900Z,9.90
2022-09-24T02:25:16.313Z,9.90
2022-09-24T02:27:42.913Z,9.90
2022-09-24T02:30:10.857Z,10.00
2022-09-24T02:32:41.047Z,10.00
2022-09-24T02:35:10.768Z,10.00
2022-09-24T02:37:43.324Z,10.00
2022-09-24T02:40:13.417Z,10.00
2022-09-24T02:42:42.237Z,10.00
2022-09-24T02:45:09.745Z,10.10
2022-09-24T02:47:37.025Z,10.00
2022-09-24T02:50:03.925Z,10.10
2022-09-24T02:52:30.569Z,10.10
2022-09-24T02:54:57.186Z,10.00
2022-09-24T02:57:23.737Z,10.10
2022-09-24T02:59:50.356Z,10.10
2022-09-24T03:02:17.177Z,10.10
2022-09-24T03:04:43.836Z,10.10
2022-09-24T03:07:11.408Z,10.10
2022-09-24T03:09:37.969Z,10.10
2022-09-24T03:12:05.052Z,10.10
2022-09-24T03:14:31.691Z,10.10
2022-09-24T03:16:58.233Z,10.10
2022-09-24T03:19:24.799Z,10.10
2022-09-24T03:21:51.355Z,10.10
2022-09-24T03:24:17.899Z,10.10
2022-09-24T03:26:45.250Z,10.20
2022-09-24T03:29:11.901Z,10.20
2022-09-24T03:31:38.584Z,10.20
2022-09-24T03:34:05.194Z,10.30
2022-09-24T03:36:31.896Z,10.30
2022-09-24T03:38:58.490Z,10.30
2022-09-24T03:41:27.621Z,10.30
2022-09-24T03:43:54.725Z,10.30
2022-09-24T03:46:24.250Z,10.30
2022-09-24T03:48:50.895Z,10.30
2022-09-24T03:51:19.919Z,10.30
2022-09-24T03:53:47.252Z,10.30
2022-09-24T03:56:13.942Z,10.30
2022-09-24T03:58:41.292Z,10.40
2022-09-24T04:01:10.265Z,10.40
2022-09-24T04:03:37.736Z,10.40
2022-09-24T04:06:05.799Z,10.40
2022-09-24T04:08:32.834Z,10.40
2022-09-24T04:10:59.799Z,10.40
2022-09-24T04:13:26.589Z,10.40
2022-09-24T04:15:54.122Z,10.40
2022-09-24T04:18:21.249Z,10.40
2022-09-24T04:20:48.288Z,10.50
2022-09-24T04:23:15.269Z,10.50
2022-09-24T04:25:41.877Z,10.50
2022-09-24T04:28:10.383Z,10.50
2022-09-24T04:30:38.053Z,10.60
2022-09-24T04:33:04.696Z,10.60
2022-09-24T04:35:32.861Z,10.60
2022-09-24T04:38:00.319Z,10.60
2022-09-24T04:40:27.654Z,10.60
2022-09-24T04:42:54.400Z,10.60
2022-09-24T04:45:21.691Z,10.60
2022-09-24T04:47:56.073Z,10.60
2022-09-24T04:50:28.700Z,10.60
2022-09-24T04:52:56.162Z,10.60
2022-09-24T04:55:23.975Z,10.60
2022-09-24T04:57:50.959Z,10.60
2022-09-24T05:00:20.191Z,10.60
2022-09-24T05:02:47.194Z,10.50
2022-09-24T05:05:14.049Z,10.50
2022-09-24T05:07:41.869Z,10.50
2022-09-24T05:10:09.139Z,10.60
2022-09-24T05:12:36.245Z,10.60
2022-09-24T05:15:03.564Z,10.60
2022-09-24T05:17:30.204Z,10.50
2022-09-24T05:19:57.850Z,10.60
2022-09-24T05:22:27.330Z,10.60
2022-09-24T05:24:54.315Z,10.60
2022-09-24T05:27:21.659Z,10.60
2022-09-24T05:29:48.249Z,10.60
2022-09-24T05:32:18.494Z,10.60
2022-09-24T05:34:45.948Z,10.60
2022-09-24T05:37:14.104Z,10.60
2022-09-24T05:39:41.039Z,10.60
2022-09-24T05:42:10.527Z,10.60
2022-09-24T05:44:38.073Z,10.70
2022-09-24T05:47:04.663Z,10.70
2022-09-24T05:49:32.070Z,10.70
2022-09-24T05:51:58.944Z,10.80
2022-09-24T05:54:25.540Z,10.80
2022-09-24T05:56:52.132Z,10.80
2022-09-24T05:59:18.725Z,10.90
2022-09-24T06:01:45.365Z,11.00
2022-09-24T06:04:12.674Z,11.10
2022-09-24T06:06:39.252Z,11.20
2022-09-24T06:09:05.880Z,11.20
2022-09-24T06:11:39.958Z,11.30
2022-09-24T06:14:08.397Z,11.30
2022-09-24T06:16:35.113Z,11.30
2022-09-24T06:19:02.117Z,11.30
2022-09-24T06:21:28.931Z,11.40
2022-09-24T06:23:55.629Z,11.40
2022-09-24T06:26:22.494Z,11.50
2022-09-24T06:28:49.103Z,11.60
2022-09-24T06:31:15.755Z,11.60
2022-09-24T06:33:42.536Z,11.70
2022-09-24T06:36:09.534Z,11.80
2022-09-24T06:38:36.600Z,12.00
2022-09-24T06:41:05.301Z,12.10
2022-09-24T06:43:33.947Z,12.10
2022-09-24T06:46:01.695Z,12.20
2022-09-24T06:48:29.216Z,12.30
2022-09-24T06:50:56.451Z,12.40
2022-09-24T06:53:23.643Z,12.50
2022-09-24T06:55:50.716Z,12.50
2022-09-24T06:58:21.220Z,12.60
2022-09-24T07:01:02.741Z,12.70
2022-09-24T07:03:31.566Z,12.70
2022-09-24T07:06:01.723Z,12.80
2022-09-24T07:08:28.465Z,12.90
2022-09-24T07:10:55.505Z,12.90
2022-09-24T07:13:22.534Z,13.10
2022-09-24T07:18:21.455Z,13.40
2022-09-24T07:20:55.448Z,13.50
2022-09-24T07:23:22.816Z,12.90
2022-09-24T07:25:50.380Z,13.50
2022-09-24T07:30:46.187Z,14.80
2022-09-24T07:33:12.805Z,13.80
2022-09-24T07:35:40.071Z,13.80
2022-09-24T07:38:12.196Z,13.70
2022-09-24T07:40:39.100Z,13.80
2022-09-24T07:43:07.501Z,13.80
2022-09-24T07:45:34.324Z,13.80
2022-09-24T07:48:02.848Z,13.90
2022-09-24T07:50:39.186Z,13.90
2022-09-24T07:53:06.437Z,14.00
2022-09-24T07:55:40.555Z,14.10
2022-09-24T07:58:14.605Z,14.20
2022-09-24T08:00:41.245Z,14.20
2022-09-24T08:03:08.021Z,14.30
2022-09-24T08:05:42.847Z,14.50
2022-09-24T08:08:09.405Z,14.50
2022-09-24T08:10:35.974Z,14.30
2022-09-24T08:13:02.596Z,14.30
2022-09-24T08:15:29.296Z,14.50
2022-09-24T08:18:02.095Z,14.60
2022-09-24T08:23:04.295Z,15.10
2022-09-24T08:25:31.752Z,15.20
2022-09-24T08:28:19.764Z,15.30
2022-09-24T08:48:37.092Z,16.80
2022-09-24T08:51:11.006Z,16.90
2022-09-24T08:53:51.017Z,17.30
2022-09-24T08:56:23.417Z,17.50
2022-09-24T08:59:03.092Z,17.60
2022-09-24T09:01:42.920Z,17.80
2022-09-24T09:04:48.305Z,18.00
2022-09-24T09:07:21.362Z,18.10
2022-09-24T09:10:12.293Z,18.10
2022-09-24T09:12:44.940Z,18.30
2022-09-24T09:15:23.717Z,18.30
2022-09-24T09:17:57.875Z,18.20
2022-09-24T09:20:43.862Z,18.10
2022-09-24T09:23:19.780Z,18.70
2022-09-24T09:25:53.064Z,18.80
2022-09-24T09:28:20.169Z,19.20
2022-09-24T09:31:32.088Z,18.40
2022-09-24T09:34:24.315Z,18.50
2022-09-24T09:37:07.012Z,18.50
2022-09-24T09:39:51.746Z,18.50
2022-09-24T09:42:25.381Z,18.50
2022-09-24T09:44:52.588Z,18.30
2022-09-24T09:47:22.120Z,18.20
2022-09-24T09:49:51.964Z,18.00
2022-09-24T09:52:21.435Z,17.90
2022-09-24T09:54:49.068Z,17.70
2022-09-24T09:57:18.303Z,17.50
2022-09-24T09:59:55.480Z,17.20
2022-09-24T10:02:30.081Z,17.10
2022-09-24T10:04:59.671Z,17.00
2022-09-24T10:07:26.317Z,16.90
2022-09-24T10:10:02.500Z,17.20
2022-09-24T10:12:30.286Z,17.30
2022-09-24T10:15:03.069Z,17.30
2022-09-24T10:17:36.789Z,17.20
2022-09-24T10:20:13.367Z,17.10
2022-09-24T10:22:41.514Z,16.90
2022-09-24T10:25:19.231Z,16.70
2022-09-24T10:27:47.343Z,16.70
2022-09-24T10:30:35.055Z,16.70
2022-09-24T10:33:06.360Z,16.70
2022-09-24T10:35:36.103Z,16.90
2022-09-24T10:38:15.127Z,16.90
2022-09-24T10:40:41.972Z,17.00
2022-09-24T10:43:19.852Z,16.90
2022-09-24T10:46:13.305Z,16.70
2022-09-24T10:48:56.272Z,16.70
2022-09-24T10:51:38.294Z,16.70
2022-09-24T10:54:57.066Z,16.80
2022-09-24T10:57:52.993Z,17.00
2022-09-24T11:00:32.692Z,17.70
2022-09-24T11:03:29.061Z,17.70
2022-09-24T11:06:33.071Z,18.40
2022-09-24T11:09:21.690Z,18.80
2022-09-24T11:11:55.401Z,19.30
2022-09-24T11:14:55.634Z,19.60
2022-09-24T11:30:31.954Z,19.40
2022-09-24T11:33:23.175Z,19.80
2022-09-24T11:36:16.019Z,19.10
2022-09-24T11:39:13.437Z,18.60
2022-09-24T11:41:49.728Z,18.50
2022-09-24T11:44:27.174Z,18.40
2022-09-24T11:47:17.407Z,18.70
2022-09-24T11:50:05.538Z,18.90
2022-09-24T11:52:32.250Z,19.10
2022-09-24T11:55:22.420Z,18.80
2022-09-24T11:58:01.552Z,18.40
2022-09-24T12:00:36.367Z,18.20
2022-09-24T12:03:12.705Z,18.00
2022-09-24T12:05:46.810Z,17.70
2022-09-24T12:08:21.174Z,17.60
2022-09-24T12:11:01.553Z,17.50
2022-09-24T12:13:42.226Z,17.20
2022-09-24T12:16:14.213Z,17.10
2022-09-24T12:18:49.695Z,17.00
2022-09-24T12:21:28.245Z,16.80
2022-09-24T12:24:03.058Z,16.60
2022-09-24T12:26:31.250Z,16.40
2022-09-24T12:29:52.176Z,16.20
2022-09-24T12:32:41.086Z,16.10
2022-09-24T12:35:23.090Z,15.90
2022-09-24T12:37:57.961Z,15.70
2022-09-24T12:40:53.730Z,15.50
2022-09-24T12:43:37.629Z,15.40
2022-09-24T12:46:08.731Z,15.30
2022-09-24T12:48:38.595Z,15.20
2022-09-24T12:51:10.151Z,15.20
2022-09-24T12:53:40.072Z,15.10
2022-09-24T12:56:09.673Z,15.10
2022-09-24T12:58:42.592Z,15.10
2022-09-24T13:01:14.161Z,15.20
2022-09-24T13:03:46.873Z,15.40
2022-09-24T13:06:35.885Z,15.60
2022-09-24T13:09:04.527Z,15.70
2022-09-24T13:11:37.407Z,15.80
2022-09-24T13:14:29.509Z,16.00
2022-09-24T13:16:56.762Z,16.20
2022-09-24T13:19:27.506Z,16.30
2022-09-24T13:21:56.832Z,16.40
2022-09-24T13:24:31.291Z,16.50
2022-09-24T13:27:21.788Z,16.50
2022-09-24T13:30:02.122Z,16.50
2022-09-24T13:32:32.420Z,16.00
2022-09-24T13:34:59.870Z,16.00
2022-09-24T13:37:38.051Z,16.00
2022-09-24T13:40:16.752Z,16.00
2022-09-24T13:42:52.618Z,15.80
2022-09-24T13:45:22.433Z,15.80
2022-09-24T13:47:58.872Z,15.90
2022-09-24T13:50:30.200Z,16.00
2022-09-24T13:53:01.949Z,16.30
2022-09-24T13:55:33.065Z,16.30
2022-09-24T13:57:59.837Z,16.20
2022-09-24T14:00:28.369Z,16.30
2022-09-24T14:03:03.359Z,16.30
2022-09-24T14:05:39.282Z,16.40
2022-09-24T14:08:11.748Z,16.50
2022-09-24T14:10:40.041Z,16.50
2022-09-24T14:13:12.175Z,16.50
2022-09-24T14:15:38.793Z,16.60
2022-09-24T14:18:10.630Z,16.50
2022-09-24T14:20:39.523Z,16.30
2022-09-24T14:23:06.383Z,16.40
2022-09-24T14:25:36.318Z,16.30
2022-09-24T14:28:05.298Z,16.10
2022-09-24T14:30:35.727Z,16.10
2022-09-24T14:33:12.375Z,15.80
2022-09-24T14:35:39.977Z,15.90
2022-09-24T14:38:09.800Z,16.00
2022-09-24T14:40:46.027Z,16.10
2022-09-24T14:43:31.268Z,16.30
2022-09-24T14:46:16.231Z,16.50
2022-09-24T14:48:44.036Z,16.70
2022-09-24T14:51:25.825Z,16.70
2022-09-24T14:54:04.345Z,16.80
2022-09-24T14:56:34.877Z,16.80
2022-09-24T14:59:01.614Z,16.90
2022-09-24T15:01:32.961Z,16.90
2022-09-24T15:04:05.452Z,17.10
2022-09-24T15:06:36.759Z,17.00
2022-09-24T15:09:15.623Z,16.90
2022-09-24T15:11:43.820Z,16.70
2022-09-24T15:14:16.832Z,16.60
2022-09-24T15:16:46.959Z,16.50
2022-09-24T15:19:22.027Z,16.40
2022-09-24T15:21:53.486Z,16.40
2022-09-24T15:24:20.568Z,16.30
2022-09-24T15:26:58.769Z,16.30
2022-09-24T15:29:25.937Z,16.30
2022-09-24T15:31:54.551Z,16.40
2022-09-24T15:34:21.167Z,16.30
2022-09-24T15:36:55.212Z,16.20
2022-09-24T15:39:23.242Z,16.00
2022-09-24T15:41:49.867Z,15.70
2022-09-24T15:44:31.244Z,15.60
2022-09-24T15:47:00.396Z,15.50
2022-09-24T15:49:27.304Z,15.40
2022-09-24T15:52:07.815Z,15.40
2022-09-24T15:54:34.645Z,15.40
2022-09-24T15:57:01.221Z,15.30
2022-09-24T15:59:28.311Z,15.30
2022-09-24T16:01:59.121Z,15.30
2022-09-24T16:04:25.767Z,15.40
2022-09-24T16:06:52.285Z,15.30
2022-09-24T16:09:18.843Z,15.30
2022-09-24T16:11:46.697Z,15.30
2022-09-24T16:14:13.246Z,15.20
2022-09-24T16:16:40.360Z,15.20
2022-09-24T16:19:08.319Z,15.20
2022-09-24T16:21:35.291Z,15.20
2022-09-24T16:24:03.112Z,15.20
2022-09-24T16:26:29.763Z,15.10
2022-09-24T16:28:56.771Z,15.10
2022-09-24T16:31:23.758Z,15.00
2022-09-24T16:33:50.467Z,15.00
2022-09-24T16:36:17.143Z,14.90
2022-09-24T16:38:43.770Z,15.00
2022-09-24T16:41:10.748Z,14.90
2022-09-24T16:43:37.561Z,14.90
2022-09-24T16:46:06.746Z,14.90
2022-09-24T16:48:33.758Z,14.80
2022-09-24T16:51:08.635Z,14.80
2022-09-24T16:53:35.699Z,14.80
2022-09-24T16:56:08.282Z,14.70
2022-09-24T17:01:08.022Z,14.70
2022-09-24T17:03:35.009Z,14.60
2022-09-24T17:06:02.144Z,14.60
2022-09-24T17:08:49.444Z,14.60
